createdAt,value
2019-04-10T00:02:07.100Z,41.71
2019-04-10T00:04:36.718Z,41.54
2019-04-10T00:07:12.676Z,40.05
2019-04-10T00:09:36.040Z,40.96
2019-04-10T00:12:05.408Z,40.66
2019-04-10T00:14:34.519Z,39.30
2019-04-10T00:17:03.184Z,39.52
2019-04-10T00:19:32.870Z,40.47
2019-04-10T00:22:02.739Z,41.80
2019-04-10T00:24:32.302Z,40.44
2019-04-10T00:27:02.073Z,43.06
2019-04-10T00:29:30.806Z,43.36
2019-04-10T00:32:01.696Z,44.58
2019-04-10T00:34:29.761Z,43.36
2019-04-10T00:36:58.364Z,43.64
2019-04-10T00:39:26.984Z,42.89
2019-04-10T00:41:56.676Z,44.16
2019-04-10T00:44:25.826Z,42.61
2019-04-10T00:46:54.854Z,44.29
2019-04-10T00:49:23.953Z,43.77
2019-04-10T00:51:52.649Z,44.87
2019-04-10T00:54:21.697Z,45.66
2019-04-10T00:56:50.671Z,43.28
2019-04-10T00:59:19.849Z,43.47
2019-04-10T01:01:48.534Z,44.22
2019-04-10T01:04:18.131Z,45.63
2019-04-10T01:06:46.915Z,47.78
2019-04-10T01:09:15.517Z,45.74
2019-04-10T01:11:44.130Z,47.44
2019-04-10T01:14:13.691Z,45.53
2019-04-10T01:16:42.314Z,46.40
2019-04-10T01:19:12.001Z,45.05
2019-04-10T01:21:40.606Z,43.72
2019-04-10T01:24:09.214Z,44.51
2019-04-10T01:26:37.830Z,44.08
2019-04-10T01:29:06.436Z,43.63
2019-04-10T01:31:35.154Z,46.72
2019-04-10T01:34:03.746Z,45.53
2019-04-10T01:36:33.297Z,46.05
2019-04-10T01:39:02.171Z,45.53
2019-04-10T01:41:30.778Z,45.37
2019-04-10T01:43:59.623Z,46.05
2019-04-10T01:46:28.533Z,47.26
2019-04-10T01:48:57.507Z,46.52
2019-04-10T01:51:26.182Z,47.57
2019-04-10T01:53:54.807Z,44.88
2019-04-10T01:56:30.230Z,46.17
2019-04-10T01:58:53.822Z,46.04
2019-04-10T02:01:29.635Z,46.40
2019-04-10T02:03:58.542Z,46.65
2019-04-10T02:06:27.464Z,44.99
2019-04-10T02:08:56.400Z,45.76
2019-04-10T02:11:25.941Z,45.01
2019-04-10T02:13:54.603Z,45.89
2019-04-10T02:16:24.614Z,45.76
2019-04-10T02:18:54.115Z,44.09
2019-04-10T02:21:23.463Z,43.87
2019-04-10T02:23:52.398Z,45.64
2019-04-10T02:26:21.328Z,44.93
2019-04-10T02:28:51.279Z,46.95
2019-04-10T02:31:21.551Z,45.85
2019-04-10T02:33:51.773Z,46.89
2019-04-10T02:36:21.302Z,43.83
2019-04-10T02:39:03.085Z,45.81
2019-04-10T02:41:21.579Z,45.31
2019-04-10T02:43:51.275Z,45.10
2019-04-10T02:46:20.066Z,44.76
2019-04-10T02:48:50.094Z,45.30
2019-04-10T02:51:20.034Z,46.21
2019-04-10T02:53:50.194Z,45.28
2019-04-10T02:56:20.810Z,45.99
2019-04-10T02:58:51.341Z,47.17
2019-04-10T03:01:19.970Z,46.73
2019-04-10T03:03:50.121Z,46.93
2019-04-10T03:06:18.971Z,46.90
2019-04-10T03:09:05.951Z,45.20
2019-04-10T03:11:20.033Z,43.41
2019-04-10T03:13:49.067Z,44.86
2019-04-10T03:16:17.782Z,45.47
2019-04-10T03:18:47.282Z,46.16
2019-04-10T03:21:15.968Z,46.87
2019-04-10T03:23:45.434Z,47.25
2019-04-10T03:26:15.221Z,46.47
2019-04-10T03:28:44.176Z,46.44
2019-04-10T03:31:13.620Z,47.57
2019-04-10T03:34:05.538Z,47.94
2019-04-10T03:36:40.197Z,45.32
2019-04-10T03:39:10.624Z,44.24
2019-04-10T03:41:40.149Z,45.52
2019-04-10T03:44:08.788Z,47.00
2019-04-10T03:46:39.946Z,47.18
2019-04-10T03:49:07.801Z,47.19
2019-04-10T03:51:36.668Z,44.42
2019-04-10T03:54:05.396Z,44.97
2019-04-10T03:56:34.052Z,44.68
2019-04-10T03:59:02.876Z,44.78
2019-04-10T04:01:32.041Z,45.43
2019-04-10T04:04:01.494Z,46.20
2019-04-10T04:06:30.133Z,46.49
2019-04-10T04:09:06.891Z,47.13
2019-04-10T04:11:30.045Z,45.99
2019-04-10T04:13:59.782Z,44.39
2019-04-10T04:16:28.439Z,45.05
2019-04-10T04:18:57.656Z,47.48
2019-04-10T04:21:26.251Z,46.99
2019-04-10T04:23:55.207Z,47.88
2019-04-10T04:26:23.847Z,46.54
2019-04-10T04:28:52.448Z,47.00
2019-04-10T04:31:21.227Z,47.86
2019-04-10T04:33:49.837Z,47.51
2019-04-10T04:36:18.538Z,47.93
2019-04-10T04:38:47.174Z,46.76
2019-04-10T04:41:15.814Z,46.72
2019-04-10T04:43:45.986Z,46.32
2019-04-10T04:46:14.754Z,48.22
2019-04-10T04:48:43.407Z,46.26
2019-04-10T04:51:11.999Z,46.89
2019-04-10T04:53:41.814Z,45.75
2019-04-10T04:56:11.512Z,46.04
2019-04-10T04:58:40.161Z,45.55
2019-04-10T05:01:08.766Z,46.92
2019-04-10T05:03:37.601Z,46.56
2019-04-10T05:06:06.167Z,44.83
2019-04-10T05:08:34.779Z,44.71
2019-04-10T05:11:04.343Z,45.05
2019-04-10T05:13:32.954Z,45.38
2019-04-10T05:16:02.639Z,45.76
2019-04-10T05:18:31.735Z,46.69
2019-04-10T05:21:00.935Z,44.78
2019-04-10T05:23:29.590Z,45.24
2019-04-10T05:25:59.197Z,45.32
2019-04-10T05:28:29.951Z,46.69
2019-04-10T05:31:01.022Z,45.05
2019-04-10T05:33:30.912Z,45.16
2019-04-10T05:35:59.593Z,46.50
2019-04-10T05:38:29.137Z,48.92
2019-04-10T05:40:57.775Z,46.71
2019-04-10T05:43:26.408Z,45.46
2019-04-10T05:45:55.163Z,43.96
2019-04-10T05:48:24.967Z,44.55
2019-04-10T05:51:02.370Z,44.98
2019-04-10T05:53:24.651Z,44.20
2019-04-10T05:55:53.789Z,44.41
2019-04-10T05:58:22.460Z,45.11
2019-04-10T06:00:51.454Z,46.49
2019-04-10T06:03:20.725Z,46.82
2019-04-10T06:05:49.337Z,45.23
2019-04-10T06:08:18.177Z,45.55
2019-04-10T06:10:47.808Z,45.66
2019-04-10T06:13:17.167Z,45.08
2019-04-10T06:15:45.791Z,45.89
2019-04-10T06:18:15.307Z,46.14
2019-04-10T06:20:45.163Z,45.35
2019-04-10T06:23:14.779Z,45.02
2019-04-10T06:25:43.715Z,42.44
2019-04-10T06:28:12.954Z,38.69
2019-04-10T06:30:41.869Z,35.51
2019-04-10T06:33:11.636Z,34.17
2019-04-10T06:35:40.356Z,34.17
2019-04-10T06:38:09.008Z,33.59
2019-04-10T06:40:37.737Z,31.91
2019-04-10T06:43:08.508Z,31.08
2019-04-10T06:45:37.207Z,29.18
2019-04-10T06:48:06.817Z,29.68
2019-04-10T06:50:35.595Z,27.88
2019-04-10T06:53:04.245Z,27.43
2019-04-10T06:55:32.803Z,26.90
2019-04-10T06:58:02.617Z,25.93
2019-04-10T07:00:32.389Z,26.52
2019-04-10T07:03:01.319Z,25.82
2019-04-10T07:05:37.943Z,25.04
2019-04-10T07:08:10.972Z,24.89
2019-04-10T07:10:40.870Z,24.72
2019-04-10T07:13:04.332Z,23.65
2019-04-10T07:15:32.391Z,24.81
2019-04-10T07:18:03.143Z,24.50
2019-04-10T07:20:32.266Z,23.68
2019-04-10T07:23:00.883Z,25.73
2019-04-10T07:25:29.892Z,24.15
2019-04-10T07:27:58.603Z,25.09
2019-04-10T07:30:28.026Z,23.98
2019-04-10T07:32:56.673Z,24.58
2019-04-10T07:35:25.748Z,23.24
2019-04-10T07:37:57.761Z,23.78
2019-04-10T07:40:25.013Z,22.92
2019-04-10T07:42:54.579Z,23.18
2019-04-10T07:45:26.431Z,21.94
2019-04-10T07:47:53.958Z,21.90
2019-04-10T07:50:22.678Z,21.45
2019-04-10T07:52:52.115Z,22.30
2019-04-10T07:55:21.108Z,21.05
2019-04-10T07:57:51.776Z,19.99
2019-04-10T08:00:20.690Z,20.05
2019-04-10T08:02:49.304Z,20.03
2019-04-10T08:05:18.858Z,19.67
2019-04-10T08:07:47.507Z,20.03
2019-04-10T08:10:16.251Z,19.13
2019-04-10T08:12:50.092Z,17.85
2019-04-10T08:15:15.226Z,22.30
2019-04-10T08:17:44.446Z,23.19
2019-04-10T08:20:13.399Z,23.12
2019-04-10T08:22:42.754Z,23.86
2019-04-10T08:25:11.412Z,22.63
2019-04-10T08:27:40.064Z,20.63
2019-04-10T08:30:11.094Z,22.24
2019-04-10T08:32:50.976Z,21.32
2019-04-10T08:35:11.241Z,20.28
2019-04-10T08:37:40.982Z,19.32
2019-04-10T08:40:11.543Z,20.00
2019-04-10T08:42:41.583Z,21.94
2019-04-10T08:45:11.386Z,25.06
2019-04-10T08:47:40.045Z,24.54
2019-04-10T08:50:09.783Z,23.02
2019-04-10T08:52:39.078Z,23.43
2019-04-10T08:55:08.263Z,22.75
2019-04-10T08:57:36.885Z,22.76
2019-04-10T09:00:07.993Z,22.21
2019-04-10T09:02:38.019Z,21.59
2019-04-10T09:05:06.836Z,22.36
2019-04-10T09:07:35.923Z,21.75
2019-04-10T09:10:05.947Z,22.35
2019-04-10T09:12:34.700Z,25.20
2019-04-10T09:15:03.432Z,23.31
2019-04-10T09:17:31.999Z,24.06
2019-04-10T09:20:00.707Z,22.72
2019-04-10T09:22:41.887Z,22.05
2019-04-10T09:25:00.703Z,22.37
2019-04-10T09:27:29.341Z,19.62
2019-04-10T09:29:57.962Z,21.90
2019-04-10T09:32:26.612Z,23.28
2019-04-10T09:34:56.185Z,22.52
2019-04-10T09:37:24.796Z,21.71
2019-04-10T09:39:54.707Z,19.79
2019-04-10T09:42:23.799Z,20.24
2019-04-10T09:44:52.801Z,20.91
2019-04-10T09:47:22.765Z,21.98
2019-04-10T09:49:51.514Z,20.29
2019-04-10T09:52:20.217Z,21.05
2019-04-10T09:54:48.961Z,21.74
2019-04-10T09:57:18.537Z,20.38
2019-04-10T09:59:47.367Z,21.76
2019-04-10T10:02:16.673Z,21.75
2019-04-10T10:04:46.293Z,21.41
2019-04-10T10:07:14.900Z,21.75
2019-04-10T10:09:43.521Z,22.49
2019-04-10T10:12:12.280Z,22.86
2019-04-10T10:14:42.157Z,22.17
2019-04-10T10:17:10.845Z,22.88
2019-04-10T10:19:40.709Z,24.48
2019-04-10T10:22:09.436Z,25.09
2019-04-10T10:24:38.482Z,23.93
2019-04-10T10:27:07.498Z,23.27
2019-04-10T10:29:36.167Z,24.20
2019-04-10T10:32:04.884Z,22.18
2019-04-10T10:34:34.581Z,19.40
2019-04-10T10:37:03.947Z,19.04
2019-04-10T10:39:32.762Z,18.70
2019-04-10T10:42:01.328Z,20.32
2019-04-10T10:44:30.220Z,19.92
2019-04-10T10:46:59.954Z,20.43
2019-04-10T10:49:28.787Z,20.56
2019-04-10T10:51:57.404Z,20.03
2019-04-10T10:54:26.817Z,19.74
2019-04-10T10:56:57.137Z,19.69
2019-04-10T10:59:27.344Z,19.58
2019-04-10T11:01:56.072Z,19.70
2019-04-10T11:04:24.729Z,19.54
2019-04-10T11:06:59.381Z,19.37
2019-04-10T11:09:23.994Z,19.81
2019-04-10T11:11:53.745Z,19.41
2019-04-10T11:14:23.656Z,18.82
2019-04-10T11:16:53.555Z,19.09
2019-04-10T11:19:23.458Z,18.68
2019-04-10T11:21:52.428Z,19.12
2019-04-10T11:24:21.245Z,17.96
2019-04-10T11:26:50.510Z,18.47
2019-04-10T11:29:21.815Z,20.23
2019-04-10T11:31:50.639Z,21.05
2019-04-10T11:34:19.271Z,20.47
2019-04-10T11:36:48.748Z,22.07
2019-04-10T11:39:23.359Z,22.45
2019-04-10T11:41:50.306Z,19.83
2019-04-10T11:44:20.347Z,19.25
2019-04-10T11:46:49.576Z,19.40
2019-04-10T11:49:22.198Z,20.39
2019-04-10T11:51:52.729Z,20.85
2019-04-10T11:54:25.044Z,20.14
2019-04-10T11:56:53.357Z,20.76
2019-04-10T11:59:23.652Z,21.07
2019-04-10T12:01:58.130Z,20.51
2019-04-10T12:04:23.291Z,20.77
2019-04-10T12:06:55.095Z,20.40
2019-04-10T12:10:08.120Z,20.38
2019-04-10T12:11:53.070Z,22.01
2019-04-10T12:14:21.716Z,21.64
2019-04-10T12:16:51.511Z,23.57
2019-04-10T12:19:22.718Z,23.24
2019-04-10T12:21:50.601Z,23.57
2019-04-10T12:24:19.303Z,23.44
2019-04-10T12:26:47.907Z,25.81
2019-04-10T12:29:16.550Z,25.91
2019-04-10T12:31:48.352Z,27.04
2019-04-10T12:34:18.016Z,27.68
2019-04-10T12:36:46.868Z,26.21
2019-04-10T12:39:16.200Z,25.33
2019-04-10T12:41:45.829Z,26.94
2019-04-10T12:44:15.627Z,24.70
2019-04-10T12:46:45.566Z,24.92
2019-04-10T12:49:15.070Z,26.11
2019-04-10T12:51:43.819Z,25.40
2019-04-10T12:54:12.423Z,25.51
2019-04-10T12:56:42.092Z,25.71
2019-04-10T12:59:11.127Z,25.66
2019-04-10T13:01:40.812Z,26.48
2019-04-10T13:04:09.631Z,26.80
2019-04-10T13:06:38.292Z,25.98
2019-04-10T13:09:11.830Z,25.21
2019-04-10T13:11:39.273Z,26.06
2019-04-10T13:14:08.453Z,28.14
2019-04-10T13:16:37.001Z,27.74
2019-04-10T13:19:05.616Z,26.34
2019-04-10T13:21:34.682Z,26.72
2019-04-10T13:24:03.719Z,26.93
2019-04-10T13:26:32.380Z,26.12
2019-04-10T13:29:00.919Z,24.57
2019-04-10T13:31:29.730Z,25.12
2019-04-10T13:33:58.390Z,26.11
2019-04-10T13:36:27.283Z,27.39
2019-04-10T13:38:56.127Z,25.28
2019-04-10T13:41:24.743Z,26.22
2019-04-10T13:43:53.985Z,26.45
2019-04-10T13:46:22.700Z,26.54
2019-04-10T13:48:51.480Z,27.37
2019-04-10T13:51:20.055Z,28.10
2019-04-10T13:53:48.701Z,27.14
2019-04-10T13:56:17.487Z,27.46
2019-04-10T13:58:46.751Z,26.60
2019-04-10T14:01:21.286Z,26.72
2019-04-10T14:03:50.374Z,27.13
2019-04-10T14:06:19.260Z,27.44
2019-04-10T14:09:04.488Z,26.89
2019-04-10T14:11:19.363Z,29.00
2019-04-10T14:13:48.361Z,27.70
2019-04-10T14:16:17.014Z,27.75
2019-04-10T14:18:46.151Z,27.37
2019-04-10T14:21:16.051Z,28.05
2019-04-10T14:23:45.338Z,27.96
2019-04-10T14:26:42.112Z,27.77
2019-04-10T14:29:07.156Z,27.69
2019-04-10T14:31:39.181Z,27.23
2019-04-10T14:34:07.801Z,26.29
2019-04-10T14:36:36.446Z,26.98
2019-04-10T14:39:16.740Z,28.95
2019-04-10T14:41:42.512Z,29.50
2019-04-10T14:44:12.437Z,28.92
2019-04-10T14:46:42.118Z,28.68
2019-04-10T14:49:11.141Z,30.05
2019-04-10T14:51:40.809Z,29.23
2019-04-10T14:54:09.554Z,27.55
2019-04-10T14:56:38.157Z,29.34
2019-04-10T14:59:07.194Z,28.61
2019-04-10T15:01:35.927Z,30.20
2019-04-10T15:04:04.697Z,29.40
2019-04-10T15:06:33.440Z,28.93
2019-04-10T15:09:02.021Z,29.19
2019-04-10T15:11:30.902Z,29.35
2019-04-10T15:13:59.560Z,28.94
2019-04-10T15:16:29.274Z,28.65
2019-04-10T15:18:58.483Z,27.76
2019-04-10T15:21:27.166Z,28.92
2019-04-10T15:23:55.766Z,28.21
2019-04-10T15:26:24.494Z,29.30
2019-04-10T15:28:54.108Z,29.94
2019-04-10T15:31:24.962Z,29.84
2019-04-10T15:33:53.831Z,30.36
2019-04-10T15:36:22.773Z,28.50
2019-04-10T15:38:52.479Z,29.72
2019-04-10T15:41:21.283Z,29.45
2019-04-10T15:43:49.989Z,29.80
2019-04-10T15:46:19.153Z,30.04
2019-04-10T15:48:48.807Z,29.34
2019-04-10T15:51:18.237Z,29.40
2019-04-10T15:53:47.301Z,27.62
2019-04-10T15:56:16.124Z,28.07
2019-04-10T15:58:45.774Z,28.52
2019-04-10T16:01:18.081Z,29.23
2019-04-10T16:03:47.185Z,29.57
2019-04-10T16:06:15.924Z,30.49
2019-04-10T16:08:44.831Z,29.02
2019-04-10T16:11:38.412Z,30.04
2019-04-10T16:14:17.885Z,31.75
2019-04-10T16:17:01.161Z,31.89
2019-04-10T16:19:37.145Z,31.01
2019-04-10T16:22:12.033Z,30.30
2019-04-10T16:24:40.840Z,29.66
2019-04-10T16:27:09.474Z,29.47
2019-04-10T16:29:38.251Z,28.81
2019-04-10T16:32:08.611Z,29.39
2019-04-10T16:34:37.211Z,30.07
2019-04-10T16:37:06.115Z,29.88
2019-04-10T16:39:34.747Z,29.79
2019-04-10T16:42:03.358Z,30.79
2019-04-10T16:44:33.031Z,30.98
2019-04-10T16:47:01.683Z,30.94
2019-04-10T16:49:30.915Z,31.64
2019-04-10T16:52:00.790Z,30.17
2019-04-10T16:54:29.464Z,30.43
2019-04-10T16:56:58.276Z,29.85
2019-04-10T16:59:27.839Z,31.65
2019-04-10T17:01:57.314Z,31.28
2019-04-10T17:04:26.168Z,31.04
2019-04-10T17:06:54.780Z,31.42
2019-04-10T17:09:25.490Z,31.36
2019-04-10T17:11:56.148Z,30.71
2019-04-10T17:14:24.690Z,30.77
2019-04-10T17:16:53.710Z,31.15
2019-04-10T17:19:23.616Z,33.04
2019-04-10T17:21:52.426Z,31.91
2019-04-10T17:24:21.275Z,31.37
2019-04-10T17:26:51.001Z,33.13
2019-04-10T17:29:20.799Z,30.63
2019-04-10T17:31:49.471Z,30.63
2019-04-10T17:34:18.731Z,32.38
2019-04-10T17:36:47.412Z,31.42
2019-04-10T17:39:18.018Z,31.42
2019-04-10T17:41:48.162Z,32.76
2019-04-10T17:44:17.972Z,32.38
2019-04-10T17:46:47.061Z,32.14
2019-04-10T17:49:17.010Z,33.35
2019-04-10T17:51:45.947Z,32.28
2019-04-10T17:54:14.793Z,32.80
2019-04-10T17:56:44.416Z,33.21
2019-04-10T17:59:14.108Z,33.16
2019-04-10T18:01:43.248Z,32.40
2019-04-10T18:04:11.894Z,32.76
2019-04-10T18:06:43.891Z,32.99
2019-04-10T18:09:11.751Z,32.99
2019-04-10T18:11:41.435Z,33.16
2019-04-10T18:14:11.147Z,33.02
2019-04-10T18:16:40.121Z,35.27
2019-04-10T18:19:08.787Z,34.07
2019-04-10T18:21:37.410Z,33.07
2019-04-10T18:24:06.273Z,33.05
2019-04-10T18:26:36.036Z,35.62
2019-04-10T18:29:05.949Z,33.88
2019-04-10T18:31:34.803Z,33.96
2019-04-10T18:34:07.066Z,33.95
2019-04-10T18:36:33.860Z,34.31
2019-04-10T18:39:02.484Z,33.43
2019-04-10T18:41:31.845Z,35.09
2019-04-10T18:44:00.573Z,34.26
2019-04-10T18:46:29.356Z,33.76
2019-04-10T18:48:58.983Z,34.89
2019-04-10T18:51:27.767Z,34.45
2019-04-10T18:53:57.313Z,35.29
2019-04-10T18:56:27.188Z,34.74
2019-04-10T18:59:10.629Z,34.69
2019-04-10T19:01:50.211Z,34.37
2019-04-10T19:04:27.438Z,34.02
2019-04-10T19:07:00.758Z,35.12
2019-04-10T19:09:30.678Z,34.58
2019-04-10T19:12:00.343Z,35.35
2019-04-10T19:14:30.235Z,34.86
2019-04-10T19:17:00.424Z,34.69
2019-04-10T19:19:29.240Z,34.98
2019-04-10T19:21:57.953Z,34.80
2019-04-10T19:24:28.142Z,35.16
2019-04-10T19:26:57.806Z,34.87
2019-04-10T19:29:27.579Z,36.29
2019-04-10T19:31:58.386Z,34.96
2019-04-10T19:34:27.519Z,34.04
2019-04-10T19:36:56.411Z,35.25
2019-04-10T19:39:26.224Z,34.64
2019-04-10T19:41:55.657Z,35.29
2019-04-10T19:44:24.518Z,34.85
2019-04-10T19:46:53.587Z,35.73
2019-04-10T19:49:22.249Z,34.10
2019-04-10T19:51:50.930Z,34.70
2019-04-10T19:54:19.514Z,35.15
2019-04-10T19:56:48.822Z,34.38
2019-04-10T19:59:18.695Z,35.25
2019-04-10T20:01:48.471Z,35.27
2019-04-10T20:04:17.388Z,35.64
2019-04-10T20:06:46.805Z,35.91
2019-04-10T20:09:16.588Z,35.49
2019-04-10T20:11:52.042Z,35.82
2019-04-10T20:14:16.767Z,35.49
2019-04-10T20:16:45.396Z,36.30
2019-04-10T20:19:14.974Z,36.94
2019-04-10T20:21:45.763Z,36.67
2019-04-10T20:24:14.008Z,35.49
2019-04-10T20:26:43.375Z,35.91
2019-04-10T20:29:12.979Z,36.26
2019-04-10T20:31:41.692Z,35.49
2019-04-10T20:34:11.443Z,36.22
2019-04-10T20:36:40.252Z,36.43
2019-04-10T20:39:12.738Z,36.41
2019-04-10T20:41:49.489Z,36.96
2019-04-10T20:44:11.850Z,36.90
2019-04-10T20:46:40.452Z,36.81
2019-04-10T20:49:10.021Z,37.10
2019-04-10T20:51:39.805Z,37.43
2019-04-10T20:54:08.660Z,38.35
2019-04-10T20:56:37.266Z,37.09
2019-04-10T20:59:05.864Z,37.85
2019-04-10T21:01:35.115Z,38.17
2019-04-10T21:04:03.718Z,37.63
2019-04-10T21:06:32.315Z,38.07
2019-04-10T21:09:01.184Z,37.41
2019-04-10T21:11:29.751Z,38.66
2019-04-10T21:13:58.662Z,38.21
2019-04-10T21:16:27.520Z,38.37
2019-04-10T21:18:56.207Z,38.78
2019-04-10T21:21:24.823Z,39.54
2019-04-10T21:23:54.263Z,39.65
2019-04-10T21:26:23.940Z,39.42
2019-04-10T21:28:53.622Z,40.03
2019-04-10T21:31:53.135Z,39.98
2019-04-10T21:34:30.368Z,40.54
2019-04-10T21:36:59.770Z,40.42
2019-04-10T21:39:28.346Z,40.75
2019-04-10T21:42:08.395Z,41.21
2019-04-10T21:44:27.294Z,40.79
2019-04-10T21:46:57.104Z,41.62
2019-04-10T21:49:26.146Z,42.16
2019-04-10T21:51:55.816Z,41.71
2019-04-10T21:54:24.741Z,42.25
2019-04-10T21:56:53.550Z,41.77
2019-04-10T21:59:22.654Z,42.13
2019-04-10T22:01:51.400Z,42.31
2019-04-10T22:04:21.008Z,43.64
2019-04-10T22:07:14.702Z,43.30
2019-04-10T22:09:52.935Z,43.24
2019-04-10T22:12:31.701Z,43.11
2019-04-10T22:14:56.205Z,43.10
2019-04-10T22:17:24.827Z,43.31
2019-04-10T22:19:54.919Z,43.64
2019-04-10T22:22:23.727Z,42.26
2019-04-10T22:24:52.665Z,42.04
2019-04-10T22:27:21.266Z,42.56
2019-04-10T22:29:50.052Z,42.17
2019-04-10T22:32:18.868Z,43.40
2019-04-10T22:34:47.478Z,42.77
2019-04-10T22:37:16.919Z,43.81
2019-04-10T22:39:45.618Z,42.56
2019-04-10T22:42:16.040Z,42.74
2019-04-10T22:44:45.657Z,42.31
2019-04-10T22:47:15.067Z,42.89
2019-04-10T22:49:43.673Z,42.98
2019-04-10T22:52:12.264Z,43.49
2019-04-10T22:54:40.928Z,42.38
2019-04-10T22:57:10.458Z,42.59
2019-04-10T22:59:40.361Z,43.47
2019-04-10T23:02:12.927Z,43.19
2019-04-10T23:04:39.616Z,43.22
2019-04-10T23:07:09.301Z,42.42
2019-04-10T23:09:38.249Z,43.86
2019-04-10T23:12:07.885Z,43.51
2019-04-10T23:14:36.645Z,43.25
2019-04-10T23:17:05.330Z,43.88
2019-04-10T23:19:34.212Z,43.04
2019-04-10T23:22:03.101Z,43.39
2019-04-10T23:24:31.871Z,43.80
2019-04-10T23:27:01.742Z,43.70
2019-04-10T23:29:30.982Z,43.31
2019-04-10T23:32:00.094Z,43.11
2019-04-10T23:34:29.015Z,43.74
2019-04-10T23:36:58.319Z,43.16
2019-04-10T23:39:28.134Z,42.89
2019-04-10T23:41:57.034Z,43.14
2019-04-10T23:44:25.648Z,43.76
2019-04-10T23:46:54.252Z,42.72
2019-04-10T23:49:23.538Z,43.51
2019-04-10T23:51:52.245Z,43.45
2019-04-10T23:54:21.486Z,43.29
2019-04-10T23:56:50.810Z,42.96
2019-04-10T23:59:20.442Z,43.27
